createdAt,value
2017-11-01T00:00:34.502Z,27.77
2017-11-01T00:03:04.351Z,31.50
2017-11-01T00:05:34.175Z,28.77
2017-11-01T00:08:04.042Z,25.57
2017-11-01T00:10:33.911Z,27.93
2017-11-01T00:13:03.763Z,26.67
2017-11-01T00:15:33.583Z,30.33
2017-11-01T00:18:03.443Z,30.37
2017-11-01T00:20:33.267Z,25.67
2017-11-01T00:23:03.114Z,24.30
2017-11-01T00:25:32.945Z,27.17
2017-11-01T00:28:03.650Z,26.90
2017-11-01T00:30:33.517Z,27.30
2017-11-01T00:33:03.382Z,26.00
2017-11-01T00:35:33.211Z,25.93
2017-11-01T00:38:03.693Z,24.97
2017-11-01T00:40:33.556Z,22.07
2017-11-01T00:43:03.401Z,27.23
2017-11-01T00:45:33.236Z,22.20
2017-11-01T00:48:03.071Z,22.93
2017-11-01T00:50:32.923Z,24.97
2017-11-01T00:53:02.757Z,23.97
2017-11-01T00:55:33.346Z,22.80
2017-11-01T00:58:03.153Z,22.57
2017-11-01T01:00:33.006Z,24.87
2017-11-01T01:03:02.830Z,23.93
2017-11-01T01:05:32.725Z,23.40
2017-11-01T01:08:02.565Z,22.90
2017-11-01T01:10:32.446Z,23.90
2017-11-01T01:13:02.282Z,24.03
2017-11-01T01:15:32.150Z,23.13
2017-11-01T01:18:02.911Z,24.97
2017-11-01T01:20:32.748Z,23.13
2017-11-01T01:23:02.595Z,25.10
2017-11-01T01:25:32.420Z,24.17
2017-11-01T01:28:02.287Z,23.37
2017-11-01T01:30:32.133Z,25.63
2017-11-01T01:33:01.990Z,20.97
2017-11-01T01:35:31.825Z,22.63
2017-11-01T01:38:01.702Z,23.63
2017-11-01T01:40:31.534Z,23.20
2017-11-01T01:43:01.383Z,24.53
2017-11-01T01:45:31.230Z,25.63
2017-11-01T01:48:01.046Z,23.10
2017-11-01T01:50:30.915Z,25.30
2017-11-01T01:53:00.742Z,23.60
2017-11-01T01:55:30.586Z,24.60
2017-11-01T01:58:00.411Z,25.60
2017-11-01T02:00:30.261Z,25.33
2017-11-01T02:03:00.097Z,20.40
2017-11-01T02:05:29.976Z,24.50
2017-11-01T02:07:59.820Z,25.93
2017-11-01T02:10:29.665Z,23.57
2017-11-01T02:12:59.503Z,22.03
2017-11-01T02:15:29.386Z,22.63
2017-11-01T02:17:59.198Z,21.10
2017-11-01T02:20:29.087Z,23.57
2017-11-01T02:22:58.927Z,21.97
2017-11-01T02:25:28.774Z,21.40
2017-11-01T02:27:58.655Z,23.43
2017-11-01T02:30:28.483Z,24.50
2017-11-01T02:32:58.361Z,23.00
2017-11-01T02:35:28.202Z,24.43
2017-11-01T02:37:58.060Z,24.97
2017-11-01T02:40:27.899Z,26.33
2017-11-01T02:42:57.772Z,22.90
2017-11-01T02:45:27.603Z,22.63
2017-11-01T02:47:57.451Z,24.00
2017-11-01T02:50:27.282Z,25.87
2017-11-01T02:52:57.162Z,28.10
2017-11-01T02:55:27.010Z,28.10
2017-11-01T02:57:56.830Z,22.80
2017-11-01T03:00:26.671Z,23.03
2017-11-01T03:02:56.504Z,22.63
2017-11-01T03:05:26.339Z,24.83
2017-11-01T03:07:56.169Z,24.50
2017-11-01T03:10:26.039Z,27.40
2017-11-01T03:12:55.865Z,24.37
2017-11-01T03:15:25.742Z,23.57
2017-11-01T03:17:55.550Z,21.50
2017-11-01T03:20:25.397Z,21.73
2017-11-01T03:22:55.248Z,26.83
2017-11-01T03:25:25.066Z,25.27
2017-11-01T03:27:54.925Z,24.97
2017-11-01T03:30:24.752Z,22.47
2017-11-01T03:32:54.586Z,22.03
2017-11-01T03:35:24.410Z,22.00
2017-11-01T03:37:54.237Z,23.73
2017-11-01T03:40:24.070Z,21.93
2017-11-01T03:42:53.927Z,21.40
2017-11-01T03:45:23.756Z,25.47
2017-11-01T03:47:53.598Z,23.37
2017-11-01T03:50:23.442Z,21.43
2017-11-01T03:52:53.274Z,25.03
2017-11-01T03:55:23.120Z,21.00
2017-11-01T03:57:52.964Z,22.93
2017-11-01T04:00:22.807Z,26.70
2017-11-01T04:02:52.626Z,19.60
2017-11-01T04:05:22.480Z,20.70
2017-11-01T04:07:52.306Z,19.90
2017-11-01T04:10:22.175Z,22.23
2017-11-01T04:12:52.013Z,25.73
2017-11-01T04:15:21.870Z,22.00
2017-11-01T04:17:51.702Z,21.50
2017-11-01T04:20:21.576Z,28.17
2017-11-01T04:22:51.399Z,22.77
2017-11-01T04:25:21.258Z,22.60
2017-11-01T04:27:51.079Z,20.87
2017-11-01T04:30:20.955Z,20.93
2017-11-01T04:32:50.795Z,18.03
2017-11-01T04:35:20.721Z,20.20
2017-11-01T04:37:50.556Z,19.77
2017-11-01T04:40:20.368Z,19.43
2017-11-01T04:42:50.218Z,18.50
2017-11-01T04:45:20.048Z,17.30
2017-11-01T04:47:49.942Z,20.03
2017-11-01T04:50:20.693Z,17.73
2017-11-01T04:52:50.586Z,16.53
2017-11-01T04:55:20.407Z,15.07
2017-11-01T04:57:52.022Z,16.37
2017-11-01T05:00:21.844Z,15.47
2017-11-01T05:02:51.675Z,17.20
2017-11-01T05:05:21.514Z,16.80
2017-11-01T05:07:51.341Z,18.03
2017-11-01T05:10:22.966Z,17.70
2017-11-01T05:12:52.785Z,15.50
2017-11-01T05:15:22.952Z,16.97
2017-11-01T05:17:52.766Z,19.70
2017-11-01T05:20:22.641Z,22.77
2017-11-01T05:22:52.480Z,19.00
2017-11-01T05:25:23.198Z,16.90
2017-11-01T05:27:53.022Z,18.67
2017-11-01T05:30:22.893Z,18.60
2017-11-01T05:32:52.694Z,16.93
2017-11-01T05:35:22.579Z,18.07
2017-11-01T05:37:52.398Z,21.53
2017-11-01T05:40:22.250Z,20.67
2017-11-01T05:42:52.086Z,17.50
2017-11-01T05:45:22.000Z,18.07
2017-11-01T05:47:51.830Z,20.07
2017-11-01T05:50:21.660Z,19.77
2017-11-01T05:52:51.522Z,21.53
2017-11-01T05:55:21.349Z,20.27
2017-11-01T05:57:51.182Z,23.77
2017-11-01T06:00:21.021Z,20.80
2017-11-01T06:02:51.638Z,23.00
2017-11-01T06:05:21.484Z,23.40
2017-11-01T06:07:51.340Z,21.60
2017-11-01T06:10:21.238Z,19.27
2017-11-01T06:12:51.140Z,24.60
2017-11-01T06:15:20.958Z,25.13
2017-11-01T06:17:50.881Z,25.07
2017-11-01T06:20:20.701Z,27.97
2017-11-01T06:22:50.522Z,23.97
2017-11-01T06:25:20.370Z,23.80
2017-11-01T06:27:50.194Z,21.33
2017-11-01T06:30:20.050Z,23.60
2017-11-01T06:32:49.897Z,25.33
2017-11-01T06:35:19.745Z,23.10
2017-11-01T06:37:49.590Z,22.60
2017-11-01T06:40:19.426Z,31.03
2017-11-01T06:42:49.284Z,25.13
2017-11-01T06:45:19.110Z,26.77
2017-11-01T06:47:48.998Z,26.87
2017-11-01T06:50:18.825Z,26.77
2017-11-01T06:52:48.738Z,25.80
2017-11-01T06:55:18.574Z,29.27
2017-11-01T06:57:48.415Z,26.17
2017-11-01T07:00:18.247Z,25.70
2017-11-01T07:02:51.074Z,30.87
2017-11-01T07:05:20.892Z,29.90
2017-11-01T07:07:50.758Z,29.33
2017-11-01T07:10:20.613Z,29.13
2017-11-01T07:12:50.510Z,29.60
2017-11-01T07:15:20.351Z,30.83
2017-11-01T07:17:50.219Z,30.07
2017-11-01T07:20:20.069Z,28.40
2017-11-01T07:22:49.924Z,34.60
2017-11-01T07:25:19.991Z,32.63
2017-11-01T07:27:49.794Z,34.47
2017-11-01T07:30:19.646Z,31.70
2017-11-01T07:32:49.456Z,30.87
2017-11-01T07:35:19.317Z,31.43
2017-11-01T07:37:49.134Z,32.47
2017-11-01T07:40:18.988Z,34.00
2017-11-01T07:42:48.817Z,35.27
2017-11-01T07:45:18.678Z,37.17
2017-11-01T07:47:48.514Z,38.20
2017-11-01T07:50:18.379Z,36.80
2017-11-01T07:52:48.233Z,35.60
2017-11-01T07:55:18.083Z,38.30
2017-11-01T07:57:47.914Z,41.00
2017-11-01T08:00:17.751Z,42.10
2017-11-01T08:02:47.607Z,40.40
2017-11-01T08:05:17.445Z,45.33
2017-11-01T08:07:47.290Z,45.57
2017-11-01T08:10:17.124Z,41.20
2017-11-01T08:12:46.969Z,45.47
2017-11-01T08:15:16.782Z,39.33
2017-11-01T08:17:46.687Z,46.27
2017-11-01T08:20:16.513Z,42.70
2017-11-01T08:22:49.597Z,49.20
2017-11-01T08:25:19.621Z,48.30
2017-11-01T08:27:49.493Z,46.83
2017-11-01T08:30:19.297Z,46.23
2017-11-01T08:32:49.143Z,51.97
2017-11-01T08:35:18.977Z,49.97
2017-11-01T08:37:48.790Z,48.50
2017-11-01T08:40:18.649Z,47.20
2017-11-01T08:42:48.511Z,47.33
2017-11-01T08:45:18.374Z,51.27
2017-11-01T08:47:48.186Z,57.30
2017-11-01T08:50:18.038Z,51.80
2017-11-01T08:52:47.902Z,52.00
2017-11-01T08:55:17.764Z,47.33
2017-11-01T08:57:47.609Z,49.97
2017-11-01T09:00:17.513Z,47.80
2017-11-01T09:02:47.329Z,53.93
2017-11-01T09:05:17.188Z,50.57
2017-11-01T09:07:47.018Z,48.47
2017-11-01T09:10:16.868Z,50.90
2017-11-01T09:12:46.730Z,44.60
2017-11-01T09:15:16.539Z,40.97
2017-11-01T09:17:46.386Z,44.93
2017-11-01T09:20:16.240Z,42.93
2017-11-01T09:22:46.094Z,43.97
2017-11-01T09:25:15.922Z,45.67
2017-11-01T09:27:45.810Z,42.37
2017-11-01T09:30:15.667Z,40.83
2017-11-01T09:32:45.534Z,43.30
2017-11-01T09:35:15.419Z,43.20
2017-11-01T09:37:45.235Z,40.63
2017-11-01T09:40:15.087Z,38.63
2017-11-01T09:42:44.945Z,37.77
2017-11-01T09:45:14.780Z,46.80
2017-11-01T09:47:44.605Z,39.37
2017-11-01T09:50:14.469Z,40.63
2017-11-01T09:52:44.290Z,39.63
2017-11-01T09:55:14.144Z,39.67
2017-11-01T09:57:43.974Z,44.30
2017-11-01T10:00:13.849Z,39.17
2017-11-01T10:02:43.698Z,37.53
2017-11-01T10:05:13.586Z,38.80
2017-11-01T10:07:43.426Z,40.97
2017-11-01T10:10:13.278Z,41.37
2017-11-01T10:12:43.120Z,40.37
2017-11-01T10:15:12.953Z,43.20
2017-11-01T10:17:42.790Z,39.90
2017-11-01T10:20:12.601Z,48.53
2017-11-01T10:22:42.470Z,43.50
2017-11-01T10:25:12.302Z,41.83
2017-11-01T10:27:42.182Z,45.00
2017-11-01T10:30:12.012Z,42.93
2017-11-01T10:32:41.860Z,42.73
2017-11-01T10:35:11.682Z,44.77
2017-11-01T10:37:41.552Z,45.80
2017-11-01T10:40:11.393Z,42.40
2017-11-01T10:42:42.371Z,42.77
2017-11-01T10:45:12.228Z,43.50
2017-11-01T10:47:42.088Z,40.27
2017-11-01T10:50:11.947Z,44.60
2017-11-01T10:52:41.787Z,39.57
2017-11-01T10:55:11.972Z,40.40
2017-11-01T10:57:41.794Z,40.60
2017-11-01T11:00:11.678Z,42.70
2017-11-01T11:02:41.535Z,38.57
2017-11-01T11:05:11.459Z,39.03
2017-11-01T11:07:41.324Z,41.47
2017-11-01T11:10:11.186Z,37.57
2017-11-01T11:12:41.049Z,40.80
2017-11-01T11:15:10.870Z,37.60
2017-11-01T11:17:40.740Z,38.40
2017-11-01T11:20:10.582Z,41.60
2017-11-01T11:22:40.430Z,39.47
2017-11-01T11:25:10.249Z,41.37
2017-11-01T11:27:40.086Z,40.20
2017-11-01T11:30:09.907Z,41.63
2017-11-01T11:32:39.785Z,39.33
2017-11-01T11:35:09.599Z,43.13
2017-11-01T11:37:39.478Z,43.40
2017-11-01T11:40:09.303Z,41.67
2017-11-01T11:42:39.186Z,39.53
2017-11-01T11:45:09.017Z,42.87
2017-11-01T11:47:38.937Z,42.20
2017-11-01T11:50:08.834Z,41.30
2017-11-01T11:52:38.794Z,41.73
2017-11-01T11:55:08.607Z,40.57
2017-11-01T11:57:38.486Z,37.87
2017-11-01T12:00:08.342Z,38.17
2017-11-01T12:02:38.166Z,35.20
2017-11-01T12:05:08.002Z,40.87
2017-11-01T12:07:37.839Z,38.13
2017-11-01T12:10:07.727Z,40.80
2017-11-01T12:12:37.537Z,39.90
2017-11-01T12:15:07.371Z,52.53
2017-11-01T12:17:37.253Z,41.03
2017-11-01T12:20:07.124Z,38.60
2017-11-01T12:22:36.960Z,38.80
2017-11-01T12:25:06.815Z,40.33
2017-11-01T12:27:36.718Z,35.50
2017-11-01T12:30:06.615Z,35.57
2017-11-01T12:32:36.461Z,33.37
2017-11-01T12:35:06.341Z,39.97
2017-11-01T12:37:36.175Z,34.47
2017-11-01T12:40:05.998Z,34.67
2017-11-01T12:42:35.835Z,33.67
2017-11-01T12:45:05.699Z,31.77
2017-11-01T12:47:35.582Z,37.60
2017-11-01T12:50:05.415Z,36.83
2017-11-01T12:52:35.307Z,35.20
2017-11-01T12:55:05.188Z,31.50
2017-11-01T12:57:35.066Z,33.63
2017-11-01T13:00:04.910Z,36.77
2017-11-01T13:02:34.767Z,32.83
2017-11-01T13:05:04.603Z,30.83
2017-11-01T13:07:34.416Z,30.60
2017-11-01T13:10:04.283Z,33.47
2017-11-01T13:12:34.097Z,29.17
2017-11-01T13:15:03.934Z,32.57
2017-11-01T13:17:33.754Z,31.40
2017-11-01T13:20:03.618Z,30.87
2017-11-01T13:22:33.468Z,29.73
2017-11-01T13:25:03.345Z,33.73
2017-11-01T13:27:33.202Z,31.13
2017-11-01T13:30:03.082Z,31.53
2017-11-01T13:32:32.912Z,28.90
2017-11-01T13:35:02.755Z,28.37
2017-11-01T13:37:32.603Z,27.47
2017-11-01T13:40:02.430Z,28.60
2017-11-01T13:42:32.280Z,30.27
2017-11-01T13:45:02.083Z,28.07
2017-11-01T13:47:31.906Z,31.20
2017-11-01T13:50:01.726Z,29.37
2017-11-01T13:52:31.570Z,27.57
2017-11-01T13:55:01.443Z,31.50
2017-11-01T13:57:31.282Z,28.97
2017-11-01T14:00:01.082Z,30.90
2017-11-01T14:02:30.946Z,30.40
2017-11-01T14:05:00.782Z,28.63
2017-11-01T14:07:30.641Z,29.33
2017-11-01T14:10:00.447Z,33.10
2017-11-01T14:12:30.290Z,32.17
2017-11-01T14:15:00.152Z,27.90
2017-11-01T14:17:30.011Z,28.80
2017-11-01T14:19:59.887Z,29.70
2017-11-01T14:22:29.710Z,26.27
2017-11-01T14:24:59.586Z,28.27
2017-11-01T14:27:29.414Z,30.67
2017-11-01T14:29:59.282Z,31.50
2017-11-01T14:32:29.109Z,27.47
2017-11-01T14:34:58.999Z,29.10
2017-11-01T14:37:28.819Z,35.00
2017-11-01T14:39:58.652Z,28.13
2017-11-01T14:42:28.471Z,28.10
2017-11-01T14:44:58.353Z,27.40
2017-11-01T14:47:28.220Z,30.37
2017-11-01T14:49:58.067Z,39.17
2017-11-01T14:52:27.918Z,38.47
2017-11-01T14:54:57.746Z,34.50
2017-11-01T14:57:27.840Z,30.30
2017-11-01T14:59:57.639Z,34.10
2017-11-01T15:02:27.512Z,36.07
2017-11-01T15:04:57.333Z,36.70
2017-11-01T15:07:27.189Z,30.00
2017-11-01T15:09:57.027Z,32.03
2017-11-01T15:12:26.945Z,29.23
2017-11-01T15:14:56.802Z,29.97
2017-11-01T15:17:26.652Z,29.37
2017-11-01T15:19:56.498Z,29.00
2017-11-01T15:22:26.387Z,30.33
2017-11-01T15:24:56.215Z,28.20
2017-11-01T15:27:26.083Z,35.40
2017-11-01T15:29:55.924Z,32.73
2017-11-01T15:32:25.770Z,30.27
2017-11-01T15:34:55.671Z,46.60
2017-11-01T15:37:25.533Z,30.03
2017-11-01T15:39:55.378Z,29.23
2017-11-01T15:42:25.229Z,29.90
2017-11-01T15:44:55.076Z,29.73
2017-11-01T15:47:24.933Z,30.07
2017-11-01T15:49:54.752Z,30.33
2017-11-01T15:52:24.574Z,31.93
2017-11-01T15:54:54.492Z,28.13
2017-11-01T15:57:24.302Z,33.00
2017-11-01T15:59:54.174Z,31.93
2017-11-01T16:02:24.013Z,29.93
2017-11-01T16:04:53.846Z,32.80
2017-11-01T16:07:23.714Z,28.80
2017-11-01T16:09:53.565Z,30.33
2017-11-01T16:12:23.414Z,30.97
2017-11-01T16:14:53.243Z,24.87
2017-11-01T16:17:23.094Z,26.47
2017-11-01T16:19:52.931Z,28.93
2017-11-01T16:22:22.813Z,26.97
2017-11-01T16:24:52.690Z,28.90
2017-11-01T16:27:22.558Z,27.73
2017-11-01T16:29:52.383Z,37.67
2017-11-01T16:32:22.478Z,31.43
2017-11-01T16:34:52.958Z,32.50
2017-11-01T16:37:23.203Z,37.00
2017-11-01T16:39:53.001Z,25.60
2017-11-01T16:42:22.882Z,52.77
2017-11-01T16:44:52.722Z,33.37
2017-11-01T16:47:22.534Z,36.37
2017-11-01T16:49:52.387Z,29.23
2017-11-01T16:52:23.043Z,26.70
2017-11-01T16:54:52.909Z,26.80
2017-11-01T16:57:22.728Z,28.13
2017-11-01T16:59:52.570Z,24.17
2017-11-01T17:02:22.403Z,25.70
2017-11-01T17:04:52.259Z,29.60
2017-11-01T17:07:22.070Z,24.70
2017-11-01T17:09:51.959Z,24.23
2017-11-01T17:12:21.803Z,25.47
2017-11-01T17:14:51.674Z,28.03
2017-11-01T17:17:21.520Z,28.27
2017-11-01T17:19:51.638Z,24.17
2017-11-01T17:22:21.491Z,27.97
2017-11-01T17:24:51.317Z,26.77
2017-11-01T17:27:21.162Z,24.00
2017-11-01T17:29:50.989Z,24.70
2017-11-01T17:32:20.878Z,25.83
2017-11-01T17:34:50.707Z,29.27
2017-11-01T17:37:20.586Z,25.03
2017-11-01T17:39:50.407Z,25.30
2017-11-01T17:42:20.310Z,24.00
2017-11-01T17:44:50.121Z,25.67
2017-11-01T17:47:20.007Z,25.83
2017-11-01T17:49:49.907Z,29.90
2017-11-01T17:52:19.722Z,27.30
2017-11-01T17:54:49.578Z,25.57
2017-11-01T17:57:19.383Z,28.03
2017-11-01T17:59:49.235Z,25.50
2017-11-01T18:02:19.055Z,25.73
2017-11-01T18:04:48.908Z,26.57
2017-11-01T18:07:18.722Z,31.33
2017-11-01T18:09:48.594Z,28.67
2017-11-01T18:12:18.455Z,26.53
2017-11-01T18:14:48.307Z,25.80
2017-11-01T18:17:18.163Z,28.37
2017-11-01T18:19:47.991Z,26.03
2017-11-01T18:22:17.842Z,26.77
2017-11-01T18:24:47.690Z,26.50
2017-11-01T18:27:17.581Z,32.73
2017-11-01T18:29:47.456Z,28.47
2017-11-01T18:32:17.310Z,28.33
2017-11-01T18:34:47.130Z,27.40
2017-11-01T18:37:17.099Z,29.07
2017-11-01T18:39:46.910Z,31.00
2017-11-01T18:42:16.758Z,28.70
2017-11-01T18:44:46.593Z,27.90
2017-11-01T18:47:16.441Z,29.13
2017-11-01T18:49:46.308Z,30.40
2017-11-01T18:52:16.150Z,28.00
2017-11-01T18:54:46.019Z,27.17
2017-11-01T18:57:15.862Z,26.13
2017-11-01T18:59:45.738Z,27.93
2017-11-01T19:02:15.587Z,28.13
2017-11-01T19:04:45.440Z,27.50
2017-11-01T19:07:15.294Z,29.90
2017-11-01T19:09:45.143Z,30.53
2017-11-01T19:12:14.977Z,25.30
2017-11-01T19:14:44.902Z,24.90
2017-11-01T19:17:14.758Z,27.50
2017-11-01T19:19:44.632Z,32.53
2017-11-01T19:22:14.842Z,32.67
2017-11-01T19:24:44.726Z,29.30
2017-11-01T19:27:14.616Z,27.17
2017-11-01T19:29:44.446Z,29.40
2017-11-01T19:32:14.295Z,28.57
2017-11-01T19:34:44.135Z,32.23
2017-11-01T19:37:13.999Z,30.93
2017-11-01T19:39:43.859Z,31.47
2017-11-01T19:42:13.759Z,29.33
2017-11-01T19:44:43.673Z,28.47
2017-11-01T19:47:13.896Z,31.40
2017-11-01T19:49:43.850Z,33.63
2017-11-01T19:52:13.824Z,27.00
2017-11-01T19:54:43.667Z,27.47
2017-11-01T19:57:13.510Z,27.03
2017-11-01T19:59:43.347Z,27.70
2017-11-01T20:02:13.202Z,24.13
2017-11-01T20:04:43.065Z,27.93
2017-11-01T20:07:12.896Z,25.17
2017-11-01T20:09:42.768Z,29.33
2017-11-01T20:12:12.605Z,27.80
2017-11-01T20:14:42.459Z,27.30
2017-11-01T20:17:12.284Z,27.33
2017-11-01T20:19:42.225Z,26.27
2017-11-01T20:22:12.184Z,24.67
2017-11-01T20:24:42.176Z,27.47
2017-11-01T20:27:12.006Z,27.17
2017-11-01T20:29:41.843Z,27.30
2017-11-01T20:32:11.698Z,26.50
2017-11-01T20:34:42.046Z,27.50
2017-11-01T20:37:11.914Z,25.03
2017-11-01T20:39:41.749Z,27.60
2017-11-01T20:42:11.624Z,25.97
2017-11-01T20:44:41.441Z,26.83
2017-11-01T20:47:11.289Z,25.67
2017-11-01T20:49:41.150Z,24.73
2017-11-01T20:52:11.162Z,23.37
2017-11-01T20:54:41.263Z,24.27
2017-11-01T20:57:11.201Z,26.97
2017-11-01T20:59:41.089Z,25.07
2017-11-01T21:02:10.905Z,24.03
2017-11-01T21:04:40.763Z,22.70
2017-11-01T21:07:10.603Z,24.60
2017-11-01T21:09:40.461Z,26.00
2017-11-01T21:12:10.306Z,26.37
2017-11-01T21:14:40.170Z,27.20
2017-11-01T21:17:09.996Z,22.83
2017-11-01T21:19:39.843Z,23.17
2017-11-01T21:22:09.794Z,21.77
2017-11-01T21:24:39.717Z,23.50
2017-11-01T21:27:10.450Z,21.83
2017-11-01T21:29:41.317Z,22.73
2017-11-01T21:32:11.160Z,22.57
2017-11-01T21:34:42.658Z,22.37
2017-11-01T21:37:12.525Z,22.83
2017-11-01T21:39:42.445Z,22.47
2017-11-01T21:42:12.296Z,21.83
2017-11-01T21:44:42.158Z,23.87
2017-11-01T21:47:12.001Z,24.60
2017-11-01T21:49:41.899Z,22.00
2017-11-01T21:52:11.763Z,22.33
2017-11-01T21:54:41.683Z,23.17
2017-11-01T21:57:11.565Z,23.03
2017-11-01T21:59:41.382Z,21.40
2017-11-01T22:02:11.229Z,27.73
2017-11-01T22:04:41.466Z,26.80
2017-11-01T22:07:11.295Z,25.63
2017-11-01T22:09:41.125Z,25.00
2017-11-01T22:12:11.002Z,22.80
2017-11-01T22:14:40.827Z,23.17
2017-11-01T22:17:10.751Z,24.97
2017-11-01T22:19:40.590Z,21.57
2017-11-01T22:22:10.403Z,20.03
2017-11-01T22:24:40.282Z,22.63
2017-11-01T22:27:10.104Z,24.47
2017-11-01T22:29:39.951Z,20.07
2017-11-01T22:32:09.778Z,21.27
2017-11-01T22:34:39.661Z,18.43
2017-11-01T22:37:09.471Z,19.60
2017-11-01T22:39:39.350Z,17.53
2017-11-01T22:42:09.170Z,20.53
2017-11-01T22:44:39.006Z,18.83
2017-11-01T22:47:08.834Z,17.20
2017-11-01T22:49:38.714Z,18.30
2017-11-01T22:52:08.612Z,19.43
2017-11-01T22:54:38.463Z,18.40
2017-11-01T22:57:08.292Z,19.10
2017-11-01T22:59:38.158Z,17.30
2017-11-01T23:02:08.012Z,16.83
2017-11-01T23:04:37.856Z,18.13
2017-11-01T23:07:07.698Z,15.60
2017-11-01T23:09:37.534Z,15.80
2017-11-01T23:12:07.380Z,17.20
2017-11-01T23:14:37.214Z,17.10
2017-11-01T23:17:07.082Z,17.43
2017-11-01T23:19:36.931Z,16.23
2017-11-01T23:22:06.791Z,18.47
2017-11-01T23:24:36.651Z,27.90
2017-11-01T23:27:06.496Z,17.83
2017-11-01T23:29:36.322Z,17.37
2017-11-01T23:32:06.171Z,17.37
2017-11-01T23:34:36.028Z,15.57
2017-11-01T23:37:05.903Z,17.37
2017-11-01T23:39:35.726Z,14.97
2017-11-01T23:42:05.595Z,15.77
2017-11-01T23:44:36.334Z,15.70
2017-11-01T23:47:06.480Z,16.67
2017-11-01T23:49:36.330Z,14.67
2017-11-01T23:52:06.141Z,17.30
2017-11-01T23:54:35.990Z,15.07
2017-11-01T23:57:05.823Z,18.80
2017-11-01T23:59:35.673Z,15.83
